Frio — WDI7439 — position and weather

sailwx.info

Track history (hours):
 
Tides and Currents Weather Stations Pressure Air Temp Water Temp Dewpoint Dewpoint Depression Visibility Wind Speed Wind Dir Waves Ship Positions

Frio

Owner: Kirby Inland Marine LP, Houston, TX. More information available from US FCC via Universal Licensing System and Coast Guard Vessel Documentation Center.

Last reported at 2017-Oct-17 21:35 UTC. Time now 2017-Oct-19 23:46 UTC.
Position N 29°30' W 094°52'.

Length 208 m; draft 2.6 m.

Type: . MMSI: 367728740.

Date/timePositionNaut miles runAvg speedWind from/ knotsBaromVisibWave heightAir tempDewpointWater temp
2017-Oct-17 21:35N 29°30' W 094°52'1 6.0
2017-Oct-17 21:21N 29°31' W 094°53'2 6.0
2017-Oct-17 20:57N 29°33' W 094°55'3 6.3
2017-Oct-17 20:30N 29°35' W 094°56'3 6.3
2017-Oct-17 20:00N 29°38' W 094°58'3 5.8
2017-Oct-17 19:30N 29°41' W 094°59'2 4.6
2017-Oct-17 19:00N 29°42' W 095°01'2 4.7
2017-Oct-17 18:29N 29°44' W 095°03'3 0.4
2017-Oct-17 10:04N 29°47' W 095°04'0 0.0
2017-Oct-17 09:45N 29°47' W 095°04'4 0.3
2017-Oct-16 19:54N 29°44' W 095°08'3 4.7
2017-Oct-16 19:18N 29°45' W 095°11'7 0.3
2017-Oct-15 18:10N 29°44' W 095°03'1 6.9
2017-Oct-15 17:57N 29°43' W 095°01'3 5.8
2017-Oct-15 17:31N 29°41' W 094°59'3 5.6
2017-Oct-15 17:00N 29°39' W 094°58'3 6.4
2017-Oct-15 16:30N 29°36' W 094°57'  
2017-Oct-11 21:43N 29°29' W 094°52'2 6.7
2017-Oct-11 21:20N 29°31' W 094°53'2 6.7
2017-Oct-11 20:59N 29°33' W 094°54'3 6.5
2017-Oct-11 20:30N 29°35' W 094°56'3 6.5
2017-Oct-11 20:00N 29°38' W 094°58'3 6.0
2017-Oct-11 19:30N 29°41' W 094°59'3 5.8
2017-Oct-11 18:59N 29°44' W 095°01'12 0.3
2017-Oct-10 09:54N 29°43' W 095°15'0 0.7
2017-Oct-10 09:30N 29°43' W 095°15'0 0.2
2017-Oct-10 08:29N 29°43' W 095°15'0 0.3
2017-Oct-10 07:27N 29°43' W 095°15'0 0.0
2017-Oct-10 06:56N 29°43' W 095°15'0 0.0
2017-Oct-10 06:27N 29°43' W 095°15'0 0.0
2017-Oct-10 04:30N 29°43' W 095°15'0 0.3
2017-Oct-10 03:53N 29°43' W 095°15'1 3.1
2017-Oct-10 03:30N 29°43' W 095°14'4 4.2
2017-Oct-10 02:29N 29°44' W 095°09'5 5.0
2017-Oct-10 01:25N 29°44' W 095°03'3 6.4
2017-Oct-10 01:00N 29°42' W 095°01'4 7.2
2017-Oct-10 00:30N 29°39' W 094°58'4 7.2
2017-Oct-10 00:00N 29°36' W 094°57'  
Track history (hours):
 
Tides and Currents Weather Stations Pressure Air Temp Water Temp Dewpoint Dewpoint Depression Visibility Wind Speed Wind Dir Waves Ship Positions

Frio

Owner: Kirby Inland Marine LP, Houston, TX. More information available from US FCC via Universal Licensing System and Coast Guard Vessel Documentation Center.

Last reported at 2017-Oct-17 21:35 UTC. Time now 2017-Oct-19 23:46 UTC.
Position N 29°30' W 094°52'.

Length 208 m; draft 2.6 m.

Type: . MMSI: 367728740.

Date/timePositionNaut miles runAvg speedWind from/ knotsBaromVisibWave heightAir tempDewpointWater temp
2017-Oct-17 21:35N 29°30' W 094°52'1 6.0
2017-Oct-17 21:21N 29°31' W 094°53'2 6.0
2017-Oct-17 20:57N 29°33' W 094°55'3 6.3
2017-Oct-17 20:30N 29°35' W 094°56'3 6.3
2017-Oct-17 20:00N 29°38' W 094°58'3 5.8
2017-Oct-17 19:30N 29°41' W 094°59'2 4.6
2017-Oct-17 19:00N 29°42' W 095°01'2 4.7
2017-Oct-17 18:29N 29°44' W 095°03'3 0.4
2017-Oct-17 10:04N 29°47' W 095°04'0 0.0
2017-Oct-17 09:45N 29°47' W 095°04'4 0.3
2017-Oct-16 19:54N 29°44' W 095°08'3 4.7
2017-Oct-16 19:18N 29°45' W 095°11'7 0.3
2017-Oct-15 18:10N 29°44' W 095°03'1 6.9
2017-Oct-15 17:57N 29°43' W 095°01'3 5.8
2017-Oct-15 17:31N 29°41' W 094°59'3 5.6
2017-Oct-15 17:00N 29°39' W 094°58'3 6.4
2017-Oct-15 16:30N 29°36' W 094°57'  
2017-Oct-11 21:43N 29°29' W 094°52'2 6.7
2017-Oct-11 21:20N 29°31' W 094°53'2 6.7
2017-Oct-11 20:59N 29°33' W 094°54'3 6.5
2017-Oct-11 20:30N 29°35' W 094°56'3 6.5
2017-Oct-11 20:00N 29°38' W 094°58'3 6.0
2017-Oct-11 19:30N 29°41' W 094°59'3 5.8
2017-Oct-11 18:59N 29°44' W 095°01'12 0.3
2017-Oct-10 09:54N 29°43' W 095°15'0 0.7
2017-Oct-10 09:30N 29°43' W 095°15'0 0.2
2017-Oct-10 08:29N 29°43' W 095°15'0 0.3
2017-Oct-10 07:27N 29°43' W 095°15'0 0.0
2017-Oct-10 06:56N 29°43' W 095°15'0 0.0
2017-Oct-10 06:27N 29°43' W 095°15'0 0.0
2017-Oct-10 04:30N 29°43' W 095°15'0 0.3
2017-Oct-10 03:53N 29°43' W 095°15'1 3.1
2017-Oct-10 03:30N 29°43' W 095°14'4 4.2
2017-Oct-10 02:29N 29°44' W 095°09'5 5.0
2017-Oct-10 01:25N 29°44' W 095°03'3 6.4
2017-Oct-10 01:00N 29°42' W 095°01'4 7.2
2017-Oct-10 00:30N 29°39' W 094°58'4 7.2
2017-Oct-10 00:00N 29°36' W 094°57'  

Dump ship's entire track history